EHGG/GRQ METAR and TAF weather

Enter ICAO airport designator
Station Type Date Time Source
EHGG METAR 2021/03/01 09:55 UTC NOAA

EHGG 010955Z AUTO 09005KT 070V140 9999 SCT002 OVC003 05/04 Q1036 TEMPO BKN006


Station Type Date Time Source
EHGG Decoded METAR 2021/03/01 09:55 UTC NOAA

Groningen Airport Eelde, Netherlands (EHGG) 53-08N 006-35E 4M
Mar 01, 2021 - 04:55 AM EST / 2021.03.01 0955 UTC
Wind: from the E (090 degrees) at 6 MPH (5 KT) (direction variable):0
Visibility: greater than 7 mile(s):0
Sky conditions: overcast
Temperature: 41 F (5 C)
Dew Point: 39 F (4 C)
Relative Humidity: 93%
Pressure (altimeter): 30.59 in. Hg (1036 hPa)
ob: EHGG 010955Z AUTO 09005KT 070V140 9999 SCT002 OVC003 05/04 Q1036 TEMPO BKN006
cycle: 10

Station Type Date Time Source
EHGG TAF 2021/03/01 06:27 UTC NOAA

TAF EHGG 010517Z 0106/0212 06005KT 4000 BR OVC006 PROB40 0106/0109 0400 FG BKN001
BECMG 0109/0111 6000 NSW BKN010
BECMG 0111/0113 9999 SCT015
BECMG 0119/0122 2500 BR MIFG
BECMG 0122/0201 0400 FG VV001
BECMG 0209/0212 9999 NSW SCT010

Example: see airport list